Tampico, Mexico

9:53 PM CDT on August 24, 2016 (GMT -0500)
Gen Francisco Javier Mina | | Change Station

Elev 79 ft 22.30 °N, 97.87 °W | Updated 1 hour ago

Mostly Cloudy
Mostly Cloudy
79 °F
Feels Like 79 °F
N
0
Wind Variable Wind from North

Today
High -- | Low -- °F
--% Chance of Precip.
Yesterday
High -- | Low -- °F
Precip. -- in
Pressure 30.02 in
Visibility 7.0 miles
Clouds Mostly Cloudy 20000 ft
Dew Point 73 °F
Humidity 83%
Rainfall 0.00 in
Snow Depth Not available.
7:12 AM 7:54 PM
Waning Gibbous, 50% visible
METAR MMTM 250147Z 00000KT 7SM BKN200 26/23 A3002 RMK 8/008 HZY
Pressure 30.02 in
Visibility 7.0 miles
Clouds Mostly Cloudy 20000 ft
Dew Point 73 °F
Humidity 83%
Rainfall 0.00 in
Snow Depth Not available.
7:12 AM 7:54 PM
Waning Gibbous, 50% visible
METAR MMTM 250147Z 00000KT 7SM BKN200 26/23 A3002 RMK 8/008 HZY

10-Day Weather Forecast

No radar image for this location.
×

Almanac

Astronomy

Aug. 24, 2016 Rise Set
Actual Time
Civil Twilight
Nautical Twilight
Astronomical Twilight
Moon
Length of Visible Light
Length of Day
Tomorrow will be .
, % of the Moon is Illuminated

Today's Extremes

Country Highs Country Lows

Community

WunderPhotos

Upload Photos

1,934,779 photos uploaded!

WunderBlog® & News

Nearby

Air Quality

  Air Quality AQ Index Pollutant
Not available.

Snow Depth

Station Depth Elevation

Earthquake Activity

City Distance Mag. Time & Date
Minimum magnitude displayed is 2.5.

Coastal Water Temperatures

Place Temperature

Stations

Nearby Weather Stations

Station Location Temp. Windchill Dew Point Humidity Wind Precip. Elev Updated Type